LEIB Airport Information

Runway Information
Runway 06 Length 9186 ft width 148 ft
Elevation 13 ft Threshold 0 ft Heading 62
Runway 24 Length 9186 ft Width 148 ft
Elevation 16 ft Threshold 0 ft Heading 242
Airport Frequencies
Type APP Name PALMA APP Frequency 118.125 MHZ
Type APP Name APP Frequency 119.8 MHZ
Type ATIS Name ATIS Frequency 117.8 MHZ
Type GND Name GND Frequency 121.8 MHZ
Type TWR Name TWR Frequency 118.5 MHZ
Airport Navaids
Type VOR-DME Name Ibiza Frequency 117800 KHZ
Type NDB Name Ibiza Frequency 394 KHZ
Airport Weather Information & NOTAM
ADDS - METARS form results

(1609 UTC 24 June 2021)
Data provider http://aviationweather.gov/metar/data/
 
METAR text: LEIB 241600Z 08013KT 050V110 CAVOK 25/16 Q1020 NOSIG
Conditions at: LEIB (IBIZA/ES CODOLA , ES) observed 1600 UTC 24 June 2021
Temperature: 25.0°C (77°F)
Dewpoint: 16.0°C (61°F) [RH = 57%]
Pressure (altimeter): 30.12 inches Hg (1020.0 mb)
Winds: from the E (80 degrees) at 15 MPH (13 knots; 6.7 m/s)
Visibility: 6 or more miles (10+ km)
Ceiling: ceiling and visibility are OK
Clouds: unknown
Weather: no significant weather observed at this time

METAR text: LEIB 241530Z 08013KT 050V140 CAVOK 25/15 Q1020 NOSIG
Conditions at: LEIB (IBIZA/ES CODOLA , ES) observed 1530 UTC 24 June 2021
Temperature: 25.0°C (77°F)
Dewpoint: 15.0°C (59°F) [RH = 54%]
Pressure (altimeter): 30.12 inches Hg (1020.0 mb)
Winds: from the E (80 degrees) at 15 MPH (13 knots; 6.7 m/s)
Visibility: 6 or more miles (10+ km)
Ceiling: ceiling and visibility are OK
Clouds: unknown
Weather: no significant weather observed at this time

Forecast for: LEIB (IBIZA/ES CODOLA , ES)
Text: TAF LEIB 241400Z 2415/2515 08015KT 9999 FEW030 TX28/2512Z TN19/2506Z
Forecast period: 1500 UTC 24 June 2021 to 1500 UTC 25 June 2021
Forecast type: FROM: standard forecast or significant change
Winds: from the E (80 degrees) at 17 MPH (15 knots; 7.7 m/s)
Visibility: 6 or more miles (10+ km)
Ceiling: at least 12,000 feet AGL
Clouds: few clouds at 3000 feet AGL
Weather: no significant weather forecast for this period